createdAt,value
2023-04-28T00:00:19.853Z,4.20
2023-04-28T00:01:01.791Z,4.40
2023-04-28T00:01:43.736Z,4.85
2023-04-28T00:02:28.390Z,5.70
2023-04-28T00:03:13.221Z,5.30
2023-04-28T00:03:56.889Z,5.18
2023-04-28T00:04:38.959Z,5.70
2023-04-28T00:05:23.432Z,5.40
2023-04-28T00:06:06.004Z,4.65
2023-04-28T00:06:48.522Z,4.80
2023-04-28T00:07:30.311Z,5.38
2023-04-28T00:08:12.238Z,5.03
2023-04-28T00:08:54.182Z,4.82
2023-04-28T00:09:36.641Z,4.40
2023-04-28T00:10:18.400Z,4.88
2023-04-28T00:11:00.979Z,5.10
2023-04-28T00:11:46.091Z,5.00
2023-04-28T00:12:28.183Z,4.53
2023-04-28T00:13:09.910Z,3.90
2023-04-28T00:13:51.909Z,4.82
2023-04-28T00:14:33.869Z,4.90
2023-04-28T00:15:16.091Z,4.45
2023-04-28T00:15:59.769Z,4.55
2023-04-28T00:16:41.927Z,5.07
2023-04-28T00:17:23.966Z,4.97
2023-04-28T00:18:06.105Z,4.60
2023-04-28T00:18:48.011Z,5.00
2023-04-28T00:19:30.394Z,4.55
2023-04-28T00:20:12.807Z,4.68
2023-04-28T00:20:55.471Z,4.70
2023-04-28T00:21:37.379Z,4.40
2023-04-28T00:22:19.472Z,4.13
2023-04-28T00:23:03.918Z,4.70
2023-04-28T00:23:46.125Z,4.32
2023-04-28T00:24:27.901Z,4.50
2023-04-28T00:25:09.987Z,4.35
2023-04-28T00:25:56.855Z,4.88
2023-04-28T00:26:38.858Z,4.45
2023-04-28T00:27:21.006Z,4.22
2023-04-28T00:28:03.060Z,4.40
2023-04-28T00:28:46.947Z,4.63
2023-04-28T00:29:29.251Z,4.82
2023-04-28T00:30:11.439Z,4.15
2023-04-28T00:30:53.432Z,4.20
2023-04-28T00:31:35.575Z,4.25
2023-04-28T00:32:17.424Z,4.25
2023-04-28T00:32:59.427Z,4.82
2023-04-28T00:33:42.241Z,4.57
2023-04-28T00:34:24.307Z,4.85
2023-04-28T00:35:07.121Z,4.40
2023-04-28T00:35:48.888Z,4.25
2023-04-28T00:36:32.381Z,4.40
2023-04-28T00:37:14.179Z,4.60
2023-04-28T00:37:55.980Z,4.90
2023-04-28T00:38:38.000Z,4.40
2023-04-28T00:39:20.054Z,4.47
2023-04-28T00:40:02.060Z,4.70
2023-04-28T00:40:43.912Z,5.22
2023-04-28T00:41:26.146Z,5.22
2023-04-28T00:42:08.368Z,5.15
2023-04-28T00:42:50.137Z,4.50
2023-04-28T00:43:32.271Z,4.63
2023-04-28T00:44:14.395Z,4.97
2023-04-28T00:44:57.003Z,4.95
2023-04-28T00:45:39.015Z,4.60
2023-04-28T00:46:31.968Z,4.80
2023-04-28T00:47:16.139Z,4.90
2023-04-28T00:47:59.543Z,4.72
2023-04-28T00:48:41.801Z,5.40
2023-04-28T00:49:23.605Z,5.28
2023-04-28T00:50:06.637Z,5.03
2023-04-28T00:50:49.072Z,4.85
2023-04-28T00:51:33.811Z,4.60
2023-04-28T00:52:16.412Z,4.70
2023-04-28T00:52:59.039Z,4.30
2023-04-28T00:53:41.950Z,4.68
2023-04-28T00:54:24.015Z,4.80
2023-04-28T00:55:07.233Z,5.13
2023-04-28T00:55:51.172Z,5.10
2023-04-28T00:56:33.922Z,4.72
2023-04-28T00:57:16.235Z,5.15
2023-04-28T00:57:58.246Z,5.10
2023-04-28T00:58:40.192Z,5.00
2023-04-28T00:59:22.007Z,5.25
2023-04-28T01:00:07.354Z,5.03
2023-04-28T01:00:49.179Z,4.35
2023-04-28T01:01:34.525Z,4.60
2023-04-28T01:02:18.366Z,4.82
2023-04-28T01:03:00.736Z,5.10
2023-04-28T01:03:42.814Z,5.30
2023-04-28T01:04:26.230Z,4.60
2023-04-28T01:05:12.601Z,5.00
2023-04-28T01:05:57.630Z,4.88
2023-04-28T01:06:41.408Z,4.70
2023-04-28T01:07:23.508Z,5.15
2023-04-28T01:08:05.330Z,4.43
2023-04-28T01:08:49.354Z,5.00
2023-04-28T01:09:31.588Z,5.05
2023-04-28T01:10:13.704Z,4.93
2023-04-28T01:10:55.671Z,4.45
2023-04-28T01:11:37.695Z,5.07
2023-04-28T01:12:19.602Z,5.35
2023-04-28T01:13:01.666Z,5.43
2023-04-28T01:13:43.651Z,5.55
2023-04-28T01:14:25.465Z,4.95
2023-04-28T01:15:12.342Z,5.43
2023-04-28T01:15:56.179Z,4.83
2023-04-28T01:16:39.604Z,4.80
2023-04-28T01:17:24.175Z,4.90
2023-04-28T01:18:06.260Z,5.25
2023-04-28T01:18:48.549Z,5.85
2023-04-28T01:19:30.423Z,6.13
2023-04-28T01:20:12.483Z,6.28
2023-04-28T01:20:54.586Z,5.63
2023-04-28T01:21:36.748Z,5.85
2023-04-28T01:22:19.140Z,6.40
2023-04-28T01:23:04.817Z,5.88
2023-04-28T01:23:49.311Z,5.60
2023-04-28T01:24:31.443Z,5.60
2023-04-28T01:25:13.260Z,6.18
2023-04-28T01:25:57.102Z,5.50
2023-04-28T01:26:39.140Z,5.15
2023-04-28T01:27:21.300Z,5.80
2023-04-28T01:28:03.248Z,5.70
2023-04-28T01:28:47.350Z,5.32
2023-04-28T01:29:29.198Z,5.05
2023-04-28T01:30:11.541Z,5.85
2023-04-28T01:30:53.287Z,5.63
2023-04-28T01:31:35.166Z,5.95
2023-04-28T01:32:17.104Z,6.30
2023-04-28T01:32:59.187Z,6.47
2023-04-28T01:33:41.481Z,5.82
2023-04-28T01:34:23.299Z,6.30
2023-04-28T01:35:05.428Z,5.53
2023-04-28T01:35:47.255Z,5.90
2023-04-28T01:36:29.832Z,6.50
2023-04-28T01:37:12.351Z,6.53
2023-04-28T01:37:54.239Z,6.55
2023-04-28T01:38:36.494Z,5.80
2023-04-28T01:39:18.521Z,6.10
2023-04-28T01:40:00.386Z,5.60
2023-04-28T01:40:42.372Z,6.10
2023-04-28T01:41:24.265Z,6.28
2023-04-28T01:42:06.528Z,5.80
2023-04-28T01:42:48.325Z,5.97
2023-04-28T01:43:30.248Z,6.13
2023-04-28T01:44:15.876Z,6.70
2023-04-28T01:44:58.280Z,6.20
2023-04-28T01:45:40.737Z,6.10
2023-04-28T01:46:22.713Z,6.50
2023-04-28T01:47:04.815Z,7.00
2023-04-28T01:47:46.927Z,6.65
2023-04-28T01:48:28.900Z,6.10
2023-04-28T01:49:10.824Z,6.03
2023-04-28T01:49:52.863Z,6.35
2023-04-28T01:50:34.926Z,7.60
2023-04-28T01:51:17.392Z,6.07
2023-04-28T01:51:59.381Z,6.18
2023-04-28T01:52:41.540Z,5.88
2023-04-28T01:53:42.531Z,6.35
2023-04-28T01:54:43.015Z,6.35
2023-04-28T01:55:43.105Z,5.90
2023-04-28T01:56:24.914Z,6.67
2023-04-28T01:57:07.040Z,6.47
2023-04-28T01:57:48.999Z,7.00
2023-04-28T01:58:30.956Z,6.82
2023-04-28T01:59:12.972Z,6.35
2023-04-28T01:59:55.500Z,6.28
2023-04-28T02:00:37.650Z,6.38
2023-04-28T02:01:19.858Z,6.45
2023-04-28T02:02:02.396Z,6.25
2023-04-28T02:02:44.482Z,6.60
2023-04-28T02:03:28.060Z,7.22
2023-04-28T02:04:10.153Z,6.50
2023-04-28T02:04:52.576Z,6.43
2023-04-28T02:05:34.786Z,6.30
2023-04-28T02:06:16.788Z,5.95
2023-04-28T02:06:59.144Z,5.70
2023-04-28T02:07:41.507Z,6.63
2023-04-28T02:08:23.492Z,6.60
2023-04-28T02:09:07.618Z,6.80
2023-04-28T02:09:49.395Z,6.55
2023-04-28T02:10:31.661Z,6.53
2023-04-28T02:11:13.612Z,6.93
2023-04-28T02:11:57.525Z,6.95
2023-04-28T02:12:42.884Z,6.90
2023-04-28T02:13:24.879Z,6.10
2023-04-28T02:14:07.424Z,6.60
2023-04-28T02:14:49.844Z,6.78
2023-04-28T02:15:32.042Z,7.43
2023-04-28T02:16:14.071Z,6.80
2023-04-28T02:16:55.888Z,7.47
2023-04-28T02:17:37.680Z,6.70
2023-04-28T02:18:19.547Z,6.63
2023-04-28T02:19:01.659Z,6.35
2023-04-28T02:19:43.814Z,6.90
2023-04-28T02:20:27.121Z,6.90
2023-04-28T02:21:13.488Z,6.47
2023-04-28T02:21:57.732Z,6.25
2023-04-28T02:22:39.490Z,6.40
2023-04-28T02:23:21.621Z,6.57
2023-04-28T02:24:03.554Z,6.40
2023-04-28T02:24:47.721Z,6.15
2023-04-28T02:25:29.912Z,5.93
2023-04-28T02:26:12.691Z,6.03
2023-04-28T02:26:54.581Z,6.50
2023-04-28T02:27:36.829Z,6.90
2023-04-28T02:28:18.687Z,6.60
2023-04-28T02:29:01.073Z,6.40
2023-04-28T02:29:43.283Z,6.22
2023-04-28T02:30:27.513Z,6.75
2023-04-28T02:31:10.597Z,6.82
2023-04-28T02:31:55.772Z,6.72
2023-04-28T02:32:38.090Z,7.03
2023-04-28T02:33:23.055Z,6.50
2023-04-28T02:34:05.364Z,6.75
2023-04-28T02:34:47.673Z,6.00
2023-04-28T02:35:29.814Z,6.55
2023-04-28T02:36:12.190Z,6.70
2023-04-28T02:36:54.570Z,6.47
2023-04-28T02:37:36.918Z,6.10
2023-04-28T02:38:19.087Z,6.57
2023-04-28T02:39:01.721Z,6.43
2023-04-28T02:39:44.255Z,6.13
2023-04-28T02:40:28.496Z,6.82
2023-04-28T02:41:10.740Z,7.10
2023-04-28T02:41:53.576Z,7.10
2023-04-28T02:42:36.061Z,6.70
2023-04-28T02:43:18.477Z,6.28
2023-04-28T02:44:01.712Z,6.95
2023-04-28T02:44:43.896Z,6.63
2023-04-28T02:45:26.142Z,6.50
2023-04-28T02:46:08.618Z,6.70
2023-04-28T02:46:51.124Z,6.40
2023-04-28T02:47:33.626Z,6.10
2023-04-28T02:48:16.092Z,6.50
2023-04-28T02:48:59.354Z,6.40
2023-04-28T02:49:41.645Z,7.18
2023-04-28T02:50:23.821Z,6.70
2023-04-28T02:51:06.291Z,6.60
2023-04-28T02:51:48.619Z,6.20
2023-04-28T02:52:30.963Z,6.18
2023-04-28T02:53:13.588Z,5.90
2023-04-28T02:53:55.993Z,5.70
2023-04-28T02:54:38.181Z,6.15
2023-04-28T02:55:24.225Z,6.03
2023-04-28T02:56:06.838Z,5.90
2023-04-28T02:56:49.022Z,5.90
2023-04-28T02:57:31.267Z,6.57
2023-04-28T02:58:13.804Z,6.45
2023-04-28T02:58:56.314Z,6.15
2023-04-28T02:59:38.680Z,6.00
2023-04-28T03:00:23.222Z,6.20
2023-04-28T03:01:07.904Z,6.55
2023-04-28T03:01:52.574Z,6.10
2023-04-28T03:02:34.820Z,6.43
2023-04-28T03:03:17.178Z,6.40
2023-04-28T03:04:00.367Z,6.60
2023-04-28T03:04:43.000Z,6.35
2023-04-28T03:05:27.603Z,5.97
2023-04-28T03:06:09.790Z,5.72
2023-04-28T03:06:52.045Z,6.00
2023-04-28T03:07:34.185Z,6.22
2023-04-28T03:08:16.413Z,5.85
2023-04-28T03:08:58.745Z,6.00
2023-04-28T03:09:42.366Z,5.70
2023-04-28T03:10:24.660Z,6.47
2023-04-28T03:11:06.903Z,6.22
2023-04-28T03:11:49.104Z,6.10
2023-04-28T03:12:31.246Z,6.40
2023-04-28T03:13:13.593Z,6.47
2023-04-28T03:13:58.104Z,6.53
2023-04-28T03:14:40.305Z,5.80
2023-04-28T03:15:22.934Z,5.90
2023-04-28T03:16:05.424Z,5.93
2023-04-28T03:16:48.008Z,6.10
2023-04-28T03:17:30.534Z,5.70
2023-04-28T03:18:13.104Z,6.30
2023-04-28T03:18:55.482Z,6.50
2023-04-28T03:19:37.939Z,6.63
2023-04-28T03:20:20.209Z,6.35
2023-04-28T03:21:03.046Z,6.05
2023-04-28T03:21:45.246Z,6.50
2023-04-28T03:22:27.982Z,6.65
2023-04-28T03:23:10.149Z,5.68
2023-04-28T03:23:52.340Z,6.70
2023-04-28T03:24:34.700Z,6.88
2023-04-28T03:25:16.921Z,6.35
2023-04-28T03:25:59.085Z,7.20
2023-04-28T03:26:41.263Z,6.63
2023-04-28T03:27:24.387Z,6.82
2023-04-28T03:28:07.124Z,7.32
2023-04-28T03:28:49.286Z,6.50
2023-04-28T03:29:31.449Z,6.18
2023-04-28T03:30:14.120Z,6.80
2023-04-28T03:30:59.204Z,5.60
2023-04-28T03:31:42.210Z,5.53
2023-04-28T03:32:24.700Z,6.80
2023-04-28T03:33:07.462Z,6.47
2023-04-28T03:33:49.719Z,6.10
2023-04-28T03:34:31.866Z,7.00
2023-04-28T03:35:14.011Z,6.88
2023-04-28T03:35:56.344Z,7.00
2023-04-28T03:36:38.670Z,6.57
2023-04-28T03:37:23.191Z,6.25
2023-04-28T03:38:05.460Z,7.30
2023-04-28T03:38:48.004Z,6.55
2023-04-28T03:39:33.016Z,6.60
2023-04-28T03:40:15.214Z,7.05
2023-04-28T03:40:57.400Z,7.35
2023-04-28T03:41:39.775Z,6.40
2023-04-28T03:42:22.161Z,6.82
2023-04-28T03:43:05.045Z,7.07
2023-04-28T03:43:47.272Z,7.18
2023-04-28T03:44:29.597Z,7.07
2023-04-28T03:45:12.235Z,7.22
2023-04-28T03:45:54.544Z,7.75
2023-04-28T03:46:37.190Z,7.28
2023-04-28T03:47:19.332Z,7.40
2023-04-28T03:48:01.674Z,7.18
2023-04-28T03:48:44.044Z,7.70
2023-04-28T03:49:26.176Z,7.10
2023-04-28T03:50:08.848Z,7.30
2023-04-28T03:50:53.205Z,7.60
2023-04-28T03:51:35.375Z,7.20
2023-04-28T03:52:18.102Z,7.47
2023-04-28T03:53:00.342Z,7.45
2023-04-28T03:53:43.134Z,7.57
2023-04-28T03:54:25.452Z,7.80
2023-04-28T03:55:08.089Z,8.02
2023-04-28T03:55:53.059Z,8.05
2023-04-28T03:56:35.397Z,7.85
2023-04-28T03:57:18.161Z,7.40
2023-04-28T03:58:00.366Z,7.38
2023-04-28T03:58:42.612Z,7.38
2023-04-28T03:59:25.052Z,7.80
2023-04-28T04:00:08.181Z,7.63
2023-04-28T04:00:50.437Z,7.50
2023-04-28T04:01:32.657Z,7.50
2023-04-28T04:02:14.912Z,7.47
2023-04-28T04:02:57.581Z,8.60
2023-04-28T04:03:40.237Z,7.93
2023-04-28T04:04:23.700Z,7.38
2023-04-28T04:05:06.889Z,7.53
2023-04-28T04:05:49.697Z,7.70
2023-04-28T04:06:32.686Z,8.18
2023-04-28T04:07:14.957Z,8.00
2023-04-28T04:07:58.083Z,7.95
2023-04-28T04:08:40.382Z,7.57
2023-04-28T04:09:23.264Z,7.40
2023-04-28T04:10:05.625Z,7.85
2023-04-28T04:10:48.210Z,7.30
2023-04-28T04:11:30.480Z,8.05
2023-04-28T04:12:13.208Z,7.65
2023-04-28T04:12:55.591Z,7.75
2023-04-28T04:13:38.255Z,7.55
2023-04-28T04:14:20.473Z,7.63
2023-04-28T04:15:04.154Z,8.25
2023-04-28T04:15:46.436Z,7.63
2023-04-28T04:16:29.465Z,7.15
2023-04-28T04:17:11.687Z,7.38
2023-04-28T04:17:53.989Z,7.35
2023-04-28T04:18:38.542Z,7.72
2023-04-28T04:19:23.137Z,8.45
2023-04-28T04:20:05.584Z,7.53
2023-04-28T04:20:49.791Z,7.50
2023-04-28T04:21:32.034Z,7.40
2023-04-28T04:22:14.283Z,7.50
2023-04-28T04:22:56.492Z,7.00
2023-04-28T04:23:38.911Z,7.50
2023-04-28T04:24:21.468Z,7.18
2023-04-28T04:25:03.965Z,6.80
2023-04-28T04:25:48.482Z,6.78
2023-04-28T04:26:30.663Z,7.55
2023-04-28T04:27:13.350Z,7.85
2023-04-28T04:27:55.571Z,7.40
2023-04-28T04:28:38.301Z,7.30
2023-04-28T04:29:20.543Z,7.38
2023-04-28T04:30:03.367Z,7.60
2023-04-28T04:30:45.566Z,7.65
2023-04-28T04:31:28.108Z,7.65
2023-04-28T04:32:10.328Z,7.75
2023-04-28T04:32:52.632Z,7.30
2023-04-28T04:33:35.432Z,7.20
2023-04-28T04:34:18.386Z,7.50
2023-04-28T04:35:00.874Z,8.20
2023-04-28T04:35:43.889Z,8.88
2023-04-28T04:36:26.542Z,7.57
2023-04-28T04:37:10.464Z,7.50
2023-04-28T04:37:52.668Z,6.85
2023-04-28T04:38:35.090Z,7.28
2023-04-28T04:39:17.439Z,7.07
2023-04-28T04:39:59.643Z,7.00
2023-04-28T04:40:41.865Z,7.10
2023-04-28T04:41:24.116Z,7.05
2023-04-28T04:42:23.362Z,7.40
2023-04-28T04:43:09.023Z,7.43
2023-04-28T04:43:53.542Z,6.95
2023-04-28T04:44:35.716Z,7.18
2023-04-28T04:45:18.388Z,7.70
2023-04-28T04:46:00.600Z,7.78
2023-04-28T04:46:43.407Z,7.72
2023-04-28T04:47:25.784Z,7.00
2023-04-28T04:48:08.548Z,7.65
2023-04-28T04:48:50.745Z,8.07
2023-04-28T04:49:33.214Z,7.78
2023-04-28T04:50:15.537Z,7.13
2023-04-28T04:50:58.560Z,7.38
2023-04-28T04:51:40.729Z,7.80
2023-04-28T04:52:23.705Z,7.65
2023-04-28T04:53:11.705Z,7.10
2023-04-28T04:53:58.510Z,7.20
2023-04-28T04:54:40.740Z,6.93
2023-04-28T04:55:25.125Z,6.80
2023-04-28T04:56:07.829Z,7.10
2023-04-28T04:56:50.104Z,7.00
2023-04-28T04:57:32.284Z,7.10
2023-04-28T04:58:14.683Z,6.80
2023-04-28T04:58:57.501Z,6.43
2023-04-28T04:59:39.688Z,7.07
2023-04-28T05:00:24.534Z,7.43
2023-04-28T05:01:07.451Z,7.53
2023-04-28T05:01:49.701Z,7.32
2023-04-28T05:02:34.659Z,8.15
2023-04-28T05:03:17.679Z,8.02
2023-04-28T05:04:00.351Z,7.50
2023-04-28T05:04:42.800Z,7.10
2023-04-28T05:05:25.160Z,7.53
2023-04-28T05:06:07.410Z,7.38
2023-04-28T05:06:49.610Z,7.80
2023-04-28T05:07:32.500Z,6.70
2023-04-28T05:08:15.028Z,6.68
2023-04-28T05:08:58.349Z,7.25
2023-04-28T05:09:40.597Z,6.50
2023-04-28T05:10:22.784Z,7.10
2023-04-28T05:11:05.198Z,6.55
2023-04-28T05:11:47.494Z,7.35
2023-04-28T05:12:29.699Z,7.50
2023-04-28T05:13:11.885Z,7.20
2023-04-28T05:13:54.228Z,7.05
2023-04-28T05:14:39.140Z,7.40
2023-04-28T05:15:23.688Z,7.38
2023-04-28T05:16:08.313Z,7.57
2023-04-28T05:16:50.812Z,7.10
2023-04-28T05:17:34.003Z,7.25
2023-04-28T05:18:16.680Z,7.07
2023-04-28T05:18:59.178Z,7.55
2023-04-28T05:19:41.369Z,7.22
2023-04-28T05:20:24.192Z,6.93
2023-04-28T05:21:06.741Z,7.57
2023-04-28T05:21:49.232Z,7.68
2023-04-28T05:22:34.107Z,7.03
2023-04-28T05:23:16.808Z,6.75
2023-04-28T05:23:59.215Z,7.05
2023-04-28T05:24:43.753Z,7.13
2023-04-28T05:25:28.380Z,7.93
2023-04-28T05:26:10.665Z,6.78
2023-04-28T05:26:54.237Z,7.00
2023-04-28T05:27:39.470Z,6.88
2023-04-28T05:28:22.185Z,6.60
2023-04-28T05:29:04.636Z,6.90
2023-04-28T05:29:47.128Z,6.20
2023-04-28T05:30:29.375Z,6.32
2023-04-28T05:31:11.596Z,6.80
2023-04-28T05:31:53.971Z,6.85
2023-04-28T05:32:36.744Z,7.20
2023-04-28T05:33:19.294Z,7.40
2023-04-28T05:34:04.354Z,7.10
2023-04-28T05:34:46.593Z,6.90
2023-04-28T05:35:28.846Z,6.70
2023-04-28T05:36:13.219Z,6.70
2023-04-28T05:36:55.392Z,7.00
2023-04-28T05:37:40.759Z,6.80
2023-04-28T05:38:23.484Z,6.70
2023-04-28T05:39:05.680Z,6.85
2023-04-28T05:39:47.928Z,6.72
2023-04-28T05:40:30.372Z,7.45
2023-04-28T05:41:12.541Z,7.80
2023-04-28T05:41:54.782Z,6.75
2023-04-28T05:42:36.950Z,6.88
2023-04-28T05:43:19.378Z,7.00
2023-04-28T05:44:04.250Z,7.10
2023-04-28T05:44:48.875Z,7.53
2023-04-28T05:45:31.040Z,7.47
2023-04-28T05:46:22.262Z,7.90
2023-04-28T05:47:12.088Z,7.35
2023-04-28T05:47:54.736Z,8.13
2023-04-28T05:48:37.010Z,8.13
2023-04-28T05:49:19.461Z,7.55
2023-04-28T05:50:01.695Z,7.28
2023-04-28T05:50:44.017Z,7.13
2023-04-28T05:51:27.450Z,7.50
2023-04-28T05:52:09.637Z,7.40
2023-04-28T05:52:51.819Z,7.57
2023-04-28T05:53:33.994Z,7.80
2023-04-28T05:54:16.542Z,7.40
2023-04-28T05:54:58.846Z,7.43
2023-04-28T05:55:41.224Z,7.07
2023-04-28T05:56:23.664Z,6.60
2023-04-28T05:57:05.846Z,7.30
2023-04-28T05:57:53.021Z,7.70
2023-04-28T05:59:01.093Z,8.20
2023-04-28T06:00:10.173Z,8.30
2023-04-28T06:01:20.286Z,7.60
2023-04-28T06:02:28.093Z,8.00
2023-04-28T06:03:42.358Z,8.38
2023-04-28T06:04:50.434Z,7.50
2023-04-28T06:06:07.853Z,8.05
2023-04-28T06:07:25.724Z,7.70
2023-04-28T06:08:38.719Z,7.50
2023-04-28T06:09:40.868Z,8.07
2023-04-28T06:10:53.553Z,7.85
2023-04-28T06:12:07.313Z,7.20
2023-04-28T06:13:19.992Z,8.02
2023-04-28T06:14:31.910Z,7.90
2023-04-28T06:15:44.446Z,7.60
2023-04-28T06:16:54.148Z,7.43
2023-04-28T06:18:07.875Z,7.32
2023-04-28T06:19:48.857Z,7.95
2023-04-28T06:21:27.392Z,7.50
2023-04-28T06:23:04.285Z,7.82
2023-04-28T06:24:44.496Z,7.18
2023-04-28T06:26:15.648Z,7.60
2023-04-28T06:27:58.166Z,7.00
2023-04-28T06:29:43.076Z,8.18
2023-04-28T06:31:19.390Z,7.78
2023-04-28T06:32:48.708Z,7.95
2023-04-28T06:34:08.621Z,7.35
2023-04-28T06:34:58.630Z,7.47
2023-04-28T06:35:41.152Z,7.10
2023-04-28T06:36:23.476Z,7.57
2023-04-28T06:37:05.997Z,7.60
2023-04-28T06:37:48.415Z,7.00
2023-04-28T06:38:33.073Z,7.10
2023-04-28T06:39:15.299Z,7.25
2023-04-28T06:39:59.891Z,6.97
2023-04-28T06:40:42.140Z,6.75
2023-04-28T06:41:24.431Z,7.18
2023-04-28T06:42:07.196Z,7.30
2023-04-28T06:42:49.924Z,7.03
2023-04-28T06:43:33.584Z,7.35
2023-04-28T06:44:18.578Z,7.30
2023-04-28T06:45:01.121Z,7.68
2023-04-28T06:45:43.390Z,7.40
2023-04-28T06:46:25.685Z,6.70
2023-04-28T06:47:08.084Z,7.13
2023-04-28T06:47:51.334Z,7.63
2023-04-28T06:48:33.685Z,7.60
2023-04-28T06:49:15.988Z,7.50
2023-04-28T06:49:58.170Z,7.70
2023-04-28T06:50:42.329Z,7.30
2023-04-28T06:51:26.956Z,7.70
2023-04-28T06:52:09.362Z,7.38
2023-04-28T06:52:52.021Z,7.18
2023-04-28T06:53:34.243Z,7.80
2023-04-28T06:54:17.296Z,7.55
2023-04-28T06:54:59.959Z,7.72
2023-04-28T06:55:42.252Z,7.30
2023-04-28T06:56:24.457Z,7.50
2023-04-28T06:57:06.659Z,7.70
2023-04-28T06:57:49.070Z,7.30
2023-04-28T06:58:31.273Z,8.10
2023-04-28T06:59:13.488Z,7.82
2023-04-28T06:59:58.271Z,7.30
2023-04-28T07:00:40.537Z,7.63
2023-04-28T07:01:23.109Z,8.10
2023-04-28T07:02:05.419Z,6.80
2023-04-28T07:02:48.286Z,6.90
2023-04-28T07:03:30.726Z,6.95
2023-04-28T07:04:13.162Z,7.80
2023-04-28T07:04:55.658Z,7.78
2023-04-28T07:05:38.110Z,7.68
2023-04-28T07:06:20.528Z,7.80
2023-04-28T07:07:03.112Z,7.35
2023-04-28T07:07:46.373Z,7.60
2023-04-28T07:08:30.608Z,7.50
2023-04-28T07:09:13.084Z,7.30
2023-04-28T07:09:55.285Z,7.25
2023-04-28T07:10:37.483Z,7.82
2023-04-28T07:11:19.989Z,8.40
2023-04-28T07:12:02.444Z,7.63
2023-04-28T07:12:44.916Z,7.55
2023-04-28T07:13:27.125Z,8.00
2023-04-28T07:14:09.425Z,7.90
2023-04-28T07:14:52.108Z,7.97
2023-04-28T07:15:34.361Z,8.52
2023-04-28T07:16:16.902Z,8.10
2023-04-28T07:16:59.319Z,8.10
2023-04-28T07:17:41.760Z,7.85
2023-04-28T07:18:23.980Z,8.20
2023-04-28T07:19:06.288Z,8.50
2023-04-28T07:19:53.350Z,8.32
2023-04-28T07:20:35.569Z,8.20
2023-04-28T07:21:18.154Z,7.28
2023-04-28T07:22:00.637Z,7.30
2023-04-28T07:22:45.189Z,8.40
2023-04-28T07:23:27.447Z,8.55
2023-04-28T07:24:09.986Z,8.20
2023-04-28T07:24:52.472Z,8.60
2023-04-28T07:25:35.457Z,8.10
2023-04-28T07:26:20.434Z,7.97
2023-04-28T07:27:03.772Z,7.07
2023-04-28T07:27:47.131Z,7.65
2023-04-28T07:28:29.321Z,8.75
2023-04-28T07:29:13.572Z,8.70
2023-04-28T07:29:58.243Z,7.97
2023-04-28T07:30:40.602Z,7.85
2023-04-28T07:31:23.279Z,7.50
2023-04-28T07:32:10.729Z,7.97
2023-04-28T07:32:53.247Z,8.20
2023-04-28T07:33:35.710Z,8.07
2023-04-28T07:34:18.447Z,7.45
2023-04-28T07:35:03.503Z,7.60
2023-04-28T07:35:48.294Z,8.05
2023-04-28T07:36:33.450Z,8.50
2023-04-28T07:37:15.696Z,8.20
2023-04-28T07:37:58.401Z,9.00
2023-04-28T07:38:40.750Z,8.88
2023-04-28T07:39:25.382Z,8.77
2023-04-28T07:40:10.474Z,7.88
2023-04-28T07:41:38.526Z,8.60
2023-04-28T07:42:23.282Z,8.00
2023-04-28T07:43:05.498Z,8.10
2023-04-28T07:43:50.522Z,8.70
2023-04-28T07:44:33.300Z,8.45
2023-04-28T07:45:16.268Z,8.18
2023-04-28T07:45:59.344Z,7.80
2023-04-28T07:46:41.554Z,9.00
2023-04-28T07:47:24.325Z,8.98
2023-04-28T07:48:07.314Z,8.98
2023-04-28T07:48:49.560Z,8.70
2023-04-28T07:49:32.242Z,8.65
2023-04-28T07:50:14.460Z,9.10
2023-04-28T07:50:56.773Z,8.48
2023-04-28T07:51:39.305Z,8.80
2023-04-28T07:52:21.911Z,8.65
2023-04-28T07:53:04.093Z,8.35
2023-04-28T07:53:46.272Z,9.10
2023-04-28T07:54:28.452Z,8.98
2023-04-28T07:55:10.653Z,8.90
2023-04-28T07:55:55.676Z,9.02
2023-04-28T07:56:40.487Z,8.50
2023-04-28T07:57:22.656Z,9.00
2023-04-28T07:58:05.054Z,8.63
2023-04-28T07:58:47.250Z,8.70
2023-04-28T07:59:29.443Z,8.63
2023-04-28T08:00:12.139Z,8.30
2023-04-28T08:00:54.397Z,8.20
2023-04-28T08:01:36.553Z,8.57
2023-04-28T08:02:20.659Z,8.32
2023-04-28T08:03:03.687Z,8.68
2023-04-28T08:03:48.537Z,8.52
2023-04-28T08:04:33.808Z,8.40
2023-04-28T08:05:17.550Z,8.82
2023-04-28T08:06:00.579Z,8.15
2023-04-28T08:06:43.005Z,7.80
2023-04-28T08:07:25.388Z,7.80
2023-04-28T08:08:07.672Z,8.40
2023-04-28T08:08:49.965Z,8.20
2023-04-28T08:09:32.829Z,7.72
2023-04-28T08:10:15.382Z,7.40
2023-04-28T08:10:58.763Z,8.32
2023-04-28T08:11:43.115Z,8.70
2023-04-28T08:12:25.386Z,7.70
2023-04-28T08:13:07.814Z,8.38
2023-04-28T08:13:50.335Z,8.65
2023-04-28T08:14:32.573Z,8.52
2023-04-28T08:15:16.510Z,8.50
2023-04-28T08:16:02.286Z,7.72
2023-04-28T08:16:45.873Z,8.10
2023-04-28T08:17:30.390Z,8.23
2023-04-28T08:18:12.701Z,8.02
2023-04-28T08:18:55.038Z,7.63
2023-04-28T08:19:37.303Z,8.23
2023-04-28T08:20:24.586Z,8.55
2023-04-28T08:21:07.636Z,7.57
2023-04-28T08:21:50.238Z,7.57
2023-04-28T08:22:32.428Z,7.85
2023-04-28T08:23:14.613Z,8.40
2023-04-28T08:23:56.753Z,8.60
2023-04-28T08:24:39.138Z,9.00
2023-04-28T08:25:21.401Z,8.77
2023-04-28T08:26:03.775Z,8.20
2023-04-28T08:26:46.152Z,8.60
2023-04-28T08:27:28.548Z,8.45
2023-04-28T08:28:10.851Z,7.90
2023-04-28T08:28:53.937Z,8.20
2023-04-28T08:29:38.468Z,8.88
2023-04-28T08:30:23.553Z,9.02
2023-04-28T08:31:08.837Z,8.87
2023-04-28T08:31:51.471Z,8.20
2023-04-28T08:32:33.844Z,8.13
2023-04-28T08:33:18.337Z,9.13
2023-04-28T08:34:00.625Z,8.38
2023-04-28T08:34:45.421Z,8.77
2023-04-28T08:35:27.722Z,9.68
2023-04-28T08:36:11.992Z,10.00
2023-04-28T08:36:54.271Z,9.27
2023-04-28T08:37:36.508Z,9.02
2023-04-28T08:38:19.071Z,9.15
2023-04-28T08:39:04.090Z,10.07
2023-04-28T08:39:47.641Z,9.60
2023-04-28T08:40:31.464Z,8.85
2023-04-28T08:41:16.660Z,8.73
2023-04-28T08:41:58.846Z,8.77
2023-04-28T08:42:41.008Z,8.80
2023-04-28T08:43:24.468Z,8.60
2023-04-28T08:44:10.290Z,8.30
2023-04-28T08:44:52.576Z,9.68
2023-04-28T08:45:43.171Z,9.57
2023-04-28T08:46:28.589Z,9.32
2023-04-28T08:47:13.511Z,10.30
2023-04-28T08:47:56.879Z,10.20
2023-04-28T08:48:43.513Z,9.82
2023-04-28T08:49:32.809Z,9.20
2023-04-28T08:50:15.432Z,9.23
2023-04-28T08:50:58.782Z,9.70
2023-04-28T08:51:45.553Z,9.07
2023-04-28T08:52:30.417Z,9.50
2023-04-28T08:53:15.663Z,9.75
2023-04-28T08:54:18.792Z,9.25
2023-04-28T08:55:03.095Z,8.90
2023-04-28T08:55:48.249Z,10.38
2023-04-28T08:56:33.870Z,10.38
2023-04-28T08:57:18.550Z,10.70
2023-04-28T08:58:01.876Z,10.60
2023-04-28T08:58:44.268Z,10.75
2023-04-28T08:59:26.608Z,11.40
2023-04-28T09:00:09.072Z,11.13
2023-04-28T09:00:52.492Z,10.70
2023-04-28T09:01:34.839Z,10.13
2023-04-28T09:02:17.366Z,11.25
2023-04-28T09:02:59.875Z,11.18
2023-04-28T09:03:42.611Z,10.98
2023-04-28T09:04:25.460Z,10.32
2023-04-28T09:05:08.814Z,10.40
2023-04-28T09:05:53.596Z,10.80
2023-04-28T09:06:36.531Z,10.30
2023-04-28T09:07:18.765Z,10.82
2023-04-28T09:08:03.860Z,10.73
2023-04-28T09:08:48.734Z,11.20
2023-04-28T09:09:33.512Z,10.87
2023-04-28T09:10:16.581Z,11.45
2023-04-28T09:11:08.966Z,11.27
2023-04-28T09:11:55.639Z,11.38
2023-04-28T09:12:41.179Z,11.85
2023-04-28T09:13:26.639Z,10.88
2023-04-28T09:14:14.842Z,10.35
2023-04-28T09:15:00.462Z,10.35
2023-04-28T09:15:42.910Z,10.98
2023-04-28T09:16:40.065Z,12.27
2023-04-28T09:17:22.344Z,11.30
2023-04-28T09:18:06.180Z,11.50
2023-04-28T09:19:00.522Z,11.93
2023-04-28T09:19:43.317Z,12.05
2023-04-28T09:20:29.716Z,12.27
2023-04-28T09:21:13.370Z,11.33
2023-04-28T09:21:56.937Z,11.60
2023-04-28T09:22:39.230Z,11.27
2023-04-28T09:23:22.608Z,10.85
2023-04-28T09:24:05.043Z,11.30
2023-04-28T09:24:47.184Z,11.25
2023-04-28T09:25:29.420Z,11.00
2023-04-28T09:26:11.628Z,11.02
2023-04-28T09:26:55.471Z,10.63
2023-04-28T09:27:38.126Z,10.80
2023-04-28T09:28:24.121Z,11.02
2023-04-28T09:29:13.862Z,11.15
2023-04-28T09:29:56.290Z,11.80
2023-04-28T09:30:40.141Z,11.35
2023-04-28T09:31:25.931Z,11.10
2023-04-28T09:32:15.505Z,10.55
2023-04-28T09:33:11.557Z,11.10
2023-04-28T09:34:00.282Z,11.68
2023-04-28T09:34:47.969Z,12.00
2023-04-28T09:35:47.102Z,11.60
2023-04-28T09:36:30.807Z,11.18
2023-04-28T09:37:20.093Z,10.67
2023-04-28T09:38:02.581Z,11.68
2023-04-28T09:38:45.380Z,10.15
2023-04-28T09:39:31.874Z,10.00
2023-04-28T09:40:14.296Z,10.20
2023-04-28T09:41:00.538Z,11.27
2023-04-28T09:41:44.045Z,11.80
2023-04-28T09:42:36.277Z,10.60
2023-04-28T09:43:28.931Z,10.70
2023-04-28T09:44:27.045Z,10.82
2023-04-28T09:45:11.899Z,10.50
2023-04-28T09:45:54.316Z,10.50
2023-04-28T09:46:36.619Z,10.40
2023-04-28T09:47:22.415Z,10.30
2023-04-28T09:48:11.183Z,10.50
2023-04-28T09:49:01.864Z,11.40
2023-04-28T09:49:56.782Z,11.18
2023-04-28T09:50:42.024Z,10.82
2023-04-28T09:51:24.225Z,11.30